Delta Virtual Airport Information Service

Martinique Aime Cesaire International Airport

ICAO: TFFF Country: Martinique
Latitude: 14.5922 Longitude: -60.9963
Latest Arrival : DAL4959511 (MYNN-TFFF) Latest Departure : DAL4959511 (TFFF-TNCC)


WX CaptureLIVE
Data provided by noaa.gov | Fetched at 07:20:28

METAR : TFFF 301300Z AUTO 10012KT 9999 FEW024 29/24 Q1015 TEMPO 4000 SHRA SCT018TCU

TAF : TFFF 301100Z 3012/0112 08010KT 9999 SCT020 PROB40 TEMPO 3012/0106 4000 SHRA SCT018TCU


Runway Data for TFFF
Data provided by openaviationdata.com

Runway ID Mag Var Hdg Length Elevation Surface ILS Freq ILS Id ILS Slope
9 -14 93° 9830 ft 16 ft Asphalt 109.9 FF 3
27 -14 273° 9830 ft 16 ft Asphalt -- -- --

Martinique Aime Cesaire International Airport, Martinique
Use only for reference purposes



Not for navigational purposes.